Latest Weather Observations for Giles*

IDD60801

Issued at 5:31 am CST Friday 21 June 2024 (issued every 10 minutes, with the page automatically refreshed every 10 minutes)

About weather observations | Map of weather stations | Latest weather observations for NT | Other Formats
Station Details ID: 013017 Name: GILES METEOROLOGICAL OFFICE Lat: -25.03 Lon: 128.30 Height: 598.0 m
Data from the previous 72 hours. | See also: Recent months at Giles*

* Giles observations are collected in the South Australia time zone, which includes daylight saving in the summer period. Therefore, Rain since 9am value is with respect to South Australia local time.

Date/Time
CST
Temp
°C
App
Temp
°C
Dew
Point
°C
Rel
Hum
%
Delta-T
°C
Wind Press
QNH
hPa
Press
MSL
hPa
Rain since
9am
mm
Dir  Spd
km/h
Gust
km/h
Spd
kts
Gust
kts
21/05:30am 3.9 -1.7 0.9 81 1.2 ESE 20 24 11 13 1025.9 1025.1 0.0
21/05:00am 4.1 -1.3 1.0 80 1.2 ESE 19 22 10 12 1025.6 1024.8 0.0
21/04:30am 4.1 -1.0 0.8 79 1.3 ESE 17 20 9 11 1025.4 1024.5 0.0
21/04:00am 4.5 -0.2 1.0 78 1.4 ESE 15 17 8 9 1025.6 1024.8 0.0
21/03:30am 4.8 1.2 0.9 76 1.6 SE 9 11 5 6 1025.5 1024.6 0.0
21/03:00am 5.7 1.8 1.1 72 1.9 SE 11 13 6 7 1025.8 1025.0 0.0
21/02:30am 6.6 2.3 1.3 69 2.2 SE 13 17 7 9 1025.8 1025.0 0.0
21/02:00am 6.7 2.5 1.4 69 2.2 SE 13 17 7 9 1025.7 1024.9 0.0
21/01:30am 6.6 2.8 1.5 70 2.1 SE 11 15 6 8 1025.6 1024.8 0.0
21/01:00am 7.0 2.8 1.5 68 2.3 SE 13 15 7 8 1025.7 1024.9 0.0
21/12:30am 7.3 3.1 1.4 66 2.5 SE 13 15 7 8 1025.7 1024.9 0.0
21/12:00am 7.7 3.8 1.3 64 2.7 SE 11 13 6 7 1025.7 1024.9 0.0
 
Date/Time
CST
Temp
°C
App
Temp
°C
Dew
Point
°C
Rel
Hum
%
Delta-T
°C
Wind Press
QNH
hPa
Press
MSL
hPa
Rain since
9am
mm
Dir  Spd
km/h
Gust
km/h
Spd
kts
Gust
kts
20/11:30pm 8.3 4.1 1.5 62 2.9 SE 13 17 7 9 1025.7 1024.9 0.0
20/11:00pm 8.9 4.3 1.6 60 3.1 SSE 15 19 8 10 1025.8 1025.0 0.0
20/10:30pm 9.5 4.6 1.7 58 3.3 SSE 17 22 9 12 1025.7 1024.9 0.0
20/10:00pm 9.8 4.9 1.7 57 3.5 SSE 17 19 9 10 1025.7 1024.9 0.0
20/09:30pm 10.5 5.5 1.6 54 3.8 SSE 17 20 9 11 1025.6 1024.8 0.0
20/09:00pm 11.3 6.4 1.8 52 4.2 SSE 17 24 9 13 1025.5 1024.6 0.0
20/08:30pm 11.7 7.1 1.6 50 4.4 SSE 15 20 8 11 1025.2 1024.3 0.0
20/08:00pm 12.0 7.0 1.1 47 4.8 SSE 17 20 9 11 1024.5 1023.6 0.0
20/07:30pm 12.3 7.5 0.4 44 5.1 SSE 15 19 8 10 1024.2 1023.4 0.0
20/07:00pm 13.0 8.2 0.1 41 5.6 SSE 15 19 8 10 1024.0 1023.1 0.0
20/06:30pm 14.0 8.3 0.6 40 5.9 SSE 20 26 11 14 1023.9 1023.0 0.0
20/06:00pm 14.7 9.1 1.3 40 6.0 SSE 20 28 11 15 1023.6 1022.7 0.0
20/05:30pm 14.9 9.4 2.1 42 5.8 SSE 20 26 11 14 1023.7 1022.8 0.0
20/05:00pm 15.2 9.4 2.1 41 6.0 SSE 22 32 12 17 1023.5 1022.6 0.0
20/04:30pm 15.7 9.8 1.8 39 6.3 SE 22 28 12 15 1023.3 1022.4 0.0
20/04:00pm 15.7 9.4 1.4 38 6.5 SE 24 32 13 17 1023.5 1022.6 0.0
20/03:30pm 16.0 9.7 1.7 38 6.5 SE 24 33 13 18 1023.5 1022.6 0.0
20/03:00pm 16.3 10.2 2.7 40 6.3 SSE 24 35 13 19 1023.4 1022.5 0.0
20/02:30pm 15.7 10.4 2.8 42 6.0 SSE 20 30 11 16 1023.7 1022.8 0.0
20/02:00pm 15.6 9.6 3.4 44 5.8 SE 24 35 13 19 1023.8 1022.9 0.0
20/01:30pm 14.9 9.8 3.1 45 5.5 SE 19 28 10 15 1024.6 1023.7 0.0
20/01:00pm 14.8 9.6 3.6 47 5.3 SE 20 30 11 16 1025.1 1024.2 0.0
20/12:30pm 14.2 8.8 4.5 52 4.6 SSE 22 32 12 17 1025.4 1024.5 0.0
20/12:00pm 13.7 7.9 4.3 53 4.4 SSE 24 32 13 17 1025.9 1025.1 0.0
20/11:30am 13.3 7.9 4.5 55 4.2 SE 22 30 12 16 1026.4 1025.5 0.0
20/11:00am 12.4 6.3 4.6 59 3.7 SE 26 33 14 18 1026.0 1025.2 0.0
20/10:30am 11.9 5.8 4.6 61 3.4 SE 26 35 14 19 1026.5 1025.6 0.0
20/10:00am 11.1 5.8 4.8 65 3.0 SE 22 28 12 15 1026.9 1026.0 0.0
20/09:30am 10.8 5.8 4.7 66 2.8 SE 20 30 11 16 1026.7 1025.8 0.0
20/09:00am 10.7 5.4 4.8 67 2.7 SE 22 30 12 16 1025.8 1025.0 0.0
20/08:30am 9.9 4.1 4.5 69 2.5 SE 24 33 13 18 1024.9 1024.0 0.0
20/08:00am 9.9 4.1 4.5 69 2.5 SE 24 33 13 18 1024.5 1023.6 0.0
20/07:30am 9.9 4.5 4.3 68 2.6 SE 22 32 12 17 1024.5 1023.6 0.0
20/07:00am 10.0 4.9 4.0 66 2.7 SE 20 28 11 15 1024.5 1023.6 0.0
20/06:30am 10.2 5.1 3.9 65 2.9 SE 20 26 11 14 1024.3 1023.5 0.0
20/06:00am 10.2 5.6 3.9 65 2.9 SE 17 24 9 13 1023.6 1022.7 0.0
20/05:30am 10.5 6.3 4.0 64 3.0 SSE 15 22 8 12 1023.6 1022.7 0.0
20/05:00am 10.7 4.8 4.0 63 3.1 SSE 24 35 13 19 1022.7 1021.8 0.0
20/04:30am 10.7 5.2 4.0 63 3.1 SSE 22 33 12 18 1022.2 1021.3 0.0
20/04:00am 11.2 6.1 4.0 61 3.3 SSE 20 30 11 16 1022.5 1021.6 0.0
20/03:30am 11.6 6.1 4.1 60 3.5 SSE 22 28 12 15 1021.7 1020.8 0.0
20/03:00am 12.1 6.2 4.1 58 3.7 SSE 24 35 13 19 1021.7 1020.8 0.0
20/02:30am 12.3 6.8 4.0 57 3.9 SE 22 30 12 16 1021.7 1020.8 0.0
20/02:00am 12.6 6.7 4.1 56 4.0 SE 24 33 13 18 1021.5 1020.6 0.0
20/01:30am 12.7 7.2 4.2 56 4.0 SSE 22 28 12 15 1021.9 1021.0 0.0
20/01:00am 13.2 7.3 4.1 54 4.3 SSE 24 32 13 17 1021.7 1020.8 0.0
20/12:30am 13.4 7.5 4.0 53 4.4 SSE 24 33 13 18 1021.6 1020.7 0.0
20/12:00am 13.7 8.3 4.3 53 4.4 SSE 22 30 12 16 1021.8 1020.9 0.0
 
Date/Time
CST
Temp
°C
App
Temp
°C
Dew
Point
°C
Rel
Hum
%
Delta-T
°C
Wind Press
QNH
hPa
Press
MSL
hPa
Rain since
9am
mm
Dir  Spd
km/h
Gust
km/h
Spd
kts
Gust
kts
19/11:30pm 13.7 8.9 4.8 55 4.2 SSE 19 24 10 13 1022.2 1021.3 0.0
19/11:00pm 14.1 9.2 5.2 55 4.3 SSE 20 26 11 14 1022.3 1021.4 0.0
19/10:30pm 14.7 10.1 5.8 55 4.4 SSE 19 24 10 13 1022.7 1021.8 0.0
19/10:00pm 15.1 10.9 5.9 54 4.6 SSE 17 22 9 12 1023.0 - 0.0
19/09:30pm 15.4 11.3 6.2 54 4.6 SSE 17 24 9 13 1022.9 1022.0 0.0
19/09:00pm 15.6 10.9 6.1 53 4.7 S 20 26 11 14 1022.3 1021.4 0.0
19/08:30pm 15.9 11.2 6.1 52 4.9 SSE 20 32 11 17 1022.2 1021.3 0.0
19/08:00pm 16.4 13.0 7.6 56 4.6 S 15 20 8 11 1022.0 1021.1 0.0
19/07:30pm 16.4 13.2 8.4 59 4.2 SE 15 19 8 10 1021.2 1020.2 0.0
19/07:00pm 16.8 13.3 8.8 59 4.2 S 17 24 9 13 1021.5 - 0.0
19/06:30pm 17.0 12.7 9.2 60 4.2 S 22 30 12 16 1021.0 1020.0 0.0
19/06:00pm 17.3 13.7 9.7 61 4.1 S 19 26 10 14 1021.0 1020.0 0.0
19/05:30pm 17.5 14.0 10.1 62 4.0 SSE 19 24 10 13 1020.4 1019.5 0.0
19/05:00pm 17.7 14.2 10.3 62 4.1 S 19 24 10 13 1020.4 - 0.0
19/04:30pm 17.6 14.9 10.2 62 4.0 SSE 15 22 8 12 1020.1 1019.2 0.0
19/04:00pm 17.4 13.8 10.5 64 3.8 SSE 20 26 11 14 1019.8 1018.9 0.0
19/03:30pm 17.3 13.7 10.7 65 3.6 SSE 20 26 11 14 1019.5 1018.5 0.0
19/03:00pm 17.2 13.2 10.3 64 3.8 SSE 22 28 12 15 1019.6 1018.6 0.0
19/02:30pm 17.4 14.1 11.0 66 3.5 SSE 19 24 10 13 1019.7 1018.7 0.0
19/02:00pm 16.8 13.4 11.1 69 3.2 SSE 20 28 11 15 1019.9 1019.0 0.0
19/01:30pm 16.5 12.6 10.8 69 3.1 SSE 22 30 12 16 1021.0 1020.0 0.0
19/01:00pm 16.4 12.9 10.9 70 3.0 SE 20 32 11 17 1021.0 1020.0 0.0
19/12:30pm 16.4 11.8 11.1 71 2.9 SE 26 33 14 18 1021.0 1020.0 0.0
19/12:00pm 15.9 11.7 11.1 73 2.6 SSE 24 33 13 18 1021.6 1020.7 0.0
19/11:30am 15.7 11.2 11.5 76 2.3 SE 26 37 14 20 1021.5 1020.6 0.0
19/11:00am 14.9 10.9 11.9 82 1.7 SSE 24 33 13 18 1021.9 1021.0 0.0
19/10:43am 15.1 11.0 11.5 79 2.0 SSE 24 35 13 19 1022.2 1021.3 0.0
19/10:30am 15.0 10.8 11.2 78 2.1 SSE 24 35 13 19 1022.1 1021.2 0.0
19/10:00am 15.9 12.5 12.6 81 1.9 SW 22 35 12 19 1022.0 1021.1 0.0
19/09:33am 16.8 14.4 13.7 82 1.8 WSW 19 26 10 14 1021.9 1021.0 0.0
19/09:30am 16.7 14.2 13.6 82 1.8 WSW 19 26 10 14 1021.7 1020.8 0.0
19/09:00am 16.4 15.5 13.7 84 1.6 WSW 11 15 6 8 1021.4 1020.5 0.0
19/08:30am 16.1 14.8 13.6 85 1.4 WSW 13 17 7 9 1020.7 1019.8 0.0
19/08:00am 16.2 15.5 13.1 82 1.8 WSW 9 13 5 7 1021.1 1020.1 0.0
19/07:30am 16.1 15.0 13.2 83 1.7 WSW 11 15 6 8 1020.5 1019.6 0.0
19/07:00am 16.4 15.7 13.1 81 1.9 WSW 9 13 5 7 1020.4 1019.5 0.0
19/06:30am 16.3 14.5 13.2 82 1.8 WSW 15 19 8 10 1020.3 1019.4 0.0
19/06:00am 16.3 14.7 12.8 80 2.0 WSW 13 17 7 9 1019.9 1019.0 0.0
19/05:30am 16.5 16.0 12.5 77 2.3 WSW 7 9 4 5 1019.6 1018.6 0.0
19/05:00am 16.8 15.8 12.3 75 2.6 WSW 9 11 5 6 1019.4 1018.4 0.0
19/04:30am 16.9 15.8 12.0 73 2.8 WSW 9 11 5 6 1019.4 1018.4 0.0
19/04:00am 17.0 15.8 11.7 71 3.0 WSW 9 11 5 6 1019.2 1018.2 0.0
19/03:30am 16.9 15.6 11.4 70 3.1 WSW 9 13 5 7 1019.3 1018.3 0.0
19/03:00am 17.0 15.0 10.1 64 3.8 WSW 11 15 6 8 1019.1 1018.1 0.0
19/02:30am 17.8 15.4 8.6 55 4.9 WSW 11 13 6 7 1018.9 1018.0 0.0
19/02:00am 18.1 17.8 8.7 54 5.0 CALM 0 6 0 3 1019.1 1018.1 0.0
19/01:30am 19.1 17.0 8.1 49 5.8 NW 9 9 5 5 1018.8 1017.9 0.0
19/01:00am 19.0 16.5 8.1 49 5.8 NW 11 11 6 6 1018.7 1017.8 0.0
19/12:30am 18.5 16.9 8.7 53 5.2 NW 7 9 4 5 1019.3 1018.3 0.0
19/12:00am 18.7 17.0 8.4 51 5.5 NW 7 9 4 5 1019.4 1018.4 0.0
 
Date/Time
CST
Temp
°C
App
Temp
°C
Dew
Point
°C
Rel
Hum
%
Delta-T
°C
Wind Press
QNH
hPa
Press
MSL
hPa
Rain since
9am
mm
Dir  Spd
km/h
Gust
km/h
Spd
kts
Gust
kts
18/11:30pm 18.8 16.9 7.6 48 5.9 NW 7 7 4 4 1019.3 1018.3 0.0
18/11:00pm 20.1 17.8 7.5 44 6.7 NW 9 9 5 5 1019.1 1018.1 0.0
18/10:30pm 20.1 17.8 7.5 44 6.6 NW 9 13 5 7 1019.1 1018.1 0.0
18/10:00pm 20.2 17.9 7.6 44 6.7 NW 9 11 5 6 1019.2 1018.2 0.0
18/09:30pm 20.1 18.4 7.5 44 6.6 NW 6 7 3 4 1019.3 1018.3 0.0
18/09:00pm 20.6 18.2 7.2 42 7.0 NW 9 13 5 7 1019.4 1018.4 0.0
18/08:30pm 20.6 18.2 7.2 42 7.0 NW 9 9 5 5 1018.7 1017.8 0.0
18/08:00pm 21.2 18.4 7.1 40 7.4 NW 11 13 6 7 1018.6 1017.7 0.0
18/07:30pm 22.0 19.4 6.3 36 8.2 NW 9 11 5 6 1018.3 1017.4 0.0
18/07:00pm 23.0 20.7 5.9 33 8.9 NW 7 7 4 4 1018.1 1017.1 0.0
18/06:30pm 23.3 21.1 6.1 33 9.0 NW 7 9 4 5 1017.6 1016.6 0.0
18/06:00pm 23.9 21.6 5.8 31 9.5 NW 7 11 4 6 1017.0 1016.1 0.0
18/05:30pm 24.8 21.8 6.1 30 9.9 NW 11 17 6 9 1017.3 1016.3 0.0
18/05:00pm 25.0 21.2 5.7 29 10.2 NW 15 20 8 11 1017.1 1016.2 0.0
18/04:30pm 25.3 21.1 5.5 28 10.4 NW 17 24 9 13 1017.1 1016.2 0.0
18/04:00pm 25.4 20.6 5.6 28 10.4 NW 20 28 11 15 1017.1 1016.2 0.0
18/03:30pm 25.3 19.8 6.0 29 10.2 NW 24 32 13 17 1017.1 1016.2 0.0
18/03:00pm 25.9 20.8 6.0 28 10.6 NNW 22 33 12 18 1017.5 1016.5 0.0
18/02:30pm 25.0 20.2 5.7 29 10.1 NNW 20 28 11 15 1018.2 1017.2 0.0
18/02:00pm 24.9 21.2 6.1 30 10.0 NW 15 20 8 11 1018.4 1017.5 0.0
18/01:30pm 24.8 20.7 6.1 30 9.9 NNW 17 22 9 12 1018.7 1017.8 0.0
18/01:00pm 24.4 19.9 6.2 31 9.6 NNW 19 26 10 14 1019.6 1018.6 0.0
18/12:30pm 23.8 19.1 6.1 32 9.3 NNW 20 28 11 15 1019.9 1019.0 0.0
18/12:00pm 23.5 19.5 6.7 34 8.9 NW 17 24 9 13 1020.5 1019.6 0.0
18/11:30am 23.3 19.4 7.0 35 8.7 NW 17 22 9 12 1020.9 1019.9 0.0
18/11:00am 22.9 18.3 6.6 35 8.6 NNW 20 26 11 14 1021.1 1020.1 0.0
18/10:30am 22.5 17.9 6.7 36 8.3 NNW 20 26 11 14 1020.9 1019.9 0.0
18/10:00am 22.3 18.3 6.5 36 8.3 NNW 17 22 9 12 1020.4 1019.5 0.0
18/09:30am 21.9 17.3 6.6 37 8.0 N 20 26 11 14 1020.1 1019.2 0.0
18/09:00am 20.7 16.3 6.6 40 7.3 N 19 24 10 13 1019.9 1019.0 0.0
18/08:30am 20.1 16.4 6.5 41 7.0 N 15 20 8 11 1019.7 1018.7 0.0
18/08:00am 19.9 15.9 6.6 42 6.9 N 17 20 9 11 1020.0 1019.1 0.0
18/07:30am 17.9 15.2 7.3 50 5.5 N 11 15 6 8 1019.9 1019.0 0.0
18/07:00am 17.0 15.3 7.4 53 5.0 NNW 6 7 3 4 1019.8 1018.9 0.0
18/06:30am 18.0 16.2 7.1 49 5.6 NNE 6 9 3 5 1019.5 1018.5 0.0
18/06:00am 18.4 16.6 7.2 48 5.8 NE 6 7 3 4 1019.5 1018.5 0.0

Other formats

Comma delimited format used in spreadsheet applications
http://www.bom.gov.au/fwo/IDD60801/IDD60801.94461.axf

JavaScript Object Notation format (JSON) in row-major order
http://www.bom.gov.au/fwo/IDD60801/IDD60801.94461.json

Data quality

Most of these data are generated automatically and are frequently updated. Quality checks on data are not normally performed. It is possible for incorrect values to appear. Refer to information at About Latest Weather Observations and please check the disclaimer before using these data.